Tiruchirapally Civil Airport Airport
VOTR : now visible

Airfield :











YOU CAN JOIN US ON...

 
LOGIN :

Register | Disclaimer

   EN    FR    IT 

 









Legend :    VFR   Marginal VFR   IFR   Intensive IFR   Very Intensive IFR
Visi :
Ceiling :
>= 8 km
>= 3000ft
5 to 8 km
1000 to 3000 ft
1500m to 5 km
500 to 1000 ft
800 to 1500m
200 to 500 ft
< 800m
< 200 ft
Symbols :   Thunderstorms  Fog  Heavy snow  Heavy precipitations  Wind > 20 kt






- Airport Elevation : 288 ft
- IATA code : TRZ


VOTR - Tiruchirapally Civil

CURRENT METAR :
  • 031800Z 27008G18KT 6000 FEW018 SCT100 29/22 Q1005 NOSIG

EXPIRED METARs :
  • 031700Z 29010KT 6000 FEW018 BKN100 29/23 Q1005 NOSIG
  • 031630Z 28009G19KT 6000 SCT018 BKN100 29/23 Q1005 NOSIG
  • 031600Z 27009KT 6000 SCT016 BKN100 30/23 Q1005 NOSIG
  • 031530Z 28010KT 6000 SCT016 SCT100 30/22 Q1005 NOSIG

TAF TAF VOTR
Valid from the 03 at 18:00 until the 05 at 00:00 UTC


031700Z 0318/0424 29015KT 6000 SCT016 SCT100
TEMPO 0318/0321 4000 -TSRA/RA SCT015 FEW025TCU/CB BKN080
BECMG 0321/0322 5000 -DZ/BR
BECMG 0403/0404 6000
TEMPO 0409/0415 29010G25KT SCT016 FEW025TCU/CB BKN100
VOMF FIR / Asia



MET'MAP, your aeronautical weather chart ! - Copyright ORBIFLY December 2007 - Disclaimer

ORBIFLY MET'MAP TEAM :

Programming & Development : Alexandra Zaïnal
Concept & original design : Baudouin d'Aumeries
Assistance for programming : Marc-Olivier Méhu
Technical & hardware support : Manuel Goepfert

Contact : metmap@orbifly.com




SOURCES & CREDITS :

   NOAA       Earth
Advisory